createdAt,value
2017-10-29T17:12:19.900Z,94840.46
2017-10-29T17:14:53.950Z,94853.17
2017-10-29T17:17:27.694Z,94857.05
2017-10-29T17:20:00.045Z,94856.42
2017-10-29T17:22:32.874Z,94853.13
2017-10-29T17:25:09.227Z,94865.78
2017-10-29T17:27:47.486Z,94872.05
2017-10-29T17:30:19.923Z,94879.09
2017-10-29T17:32:52.712Z,94882.50
2017-10-29T17:35:32.739Z,94879.21
2017-10-29T17:38:05.759Z,94892.16
2017-10-29T17:40:41.002Z,94897.39
2017-10-29T17:43:16.764Z,94902.88
2017-10-29T17:45:50.455Z,94903.57
2017-10-29T17:48:27.800Z,94905.17
2017-10-29T17:51:04.817Z,94911.77
2017-10-29T17:53:50.052Z,94913.33
2017-10-29T17:56:22.108Z,94910.36
2017-10-29T17:58:59.515Z,94924.45
2017-10-29T18:01:32.043Z,94924.94
2017-10-29T18:09:23.101Z,94934.11
2017-10-29T18:11:52.764Z,94938.48
2017-10-29T18:14:22.405Z,94945.42
2017-10-29T18:16:52.207Z,94950.53
2017-10-29T18:19:23.761Z,94952.63
2017-10-29T18:21:54.255Z,94954.14
2017-10-29T18:24:24.014Z,94949.55
2017-10-29T18:26:54.072Z,94966.61
2017-10-29T18:29:22.976Z,94970.46
2017-10-29T18:31:51.922Z,94962.02
2017-10-29T18:34:22.184Z,94975.70
2017-10-29T18:36:52.947Z,94968.53
2017-10-29T18:39:21.839Z,94968.39
2017-10-29T18:41:51.036Z,94968.98
2017-10-29T18:44:21.344Z,94978.74
2017-10-29T18:46:51.037Z,94991.23
2017-10-29T18:49:20.439Z,94992.64
2017-10-29T18:51:54.202Z,94999.18
2017-10-29T18:54:24.338Z,95002.66
2017-10-29T18:56:53.260Z,95005.03
2017-10-29T18:59:22.388Z,95006.60
2017-10-29T19:01:52.127Z,95008.73
2017-10-29T19:04:22.612Z,95008.13
2017-10-29T19:06:54.189Z,95005.09
2017-10-29T19:09:23.315Z,95014.77
2017-10-29T19:11:52.564Z,95008.40
2017-10-29T19:14:22.293Z,95011.55
2017-10-29T19:16:53.722Z,95001.73
2017-10-29T19:19:23.472Z,95004.77
2017-10-29T19:21:53.656Z,95013.39
2017-10-29T19:24:24.032Z,94997.00
2017-10-29T19:26:53.040Z,95004.30
2017-10-29T19:29:22.109Z,95011.26
2017-10-29T19:31:51.595Z,95009.28
2017-10-29T19:34:20.624Z,95010.63
2017-10-29T19:36:52.355Z,95002.09
2017-10-29T19:39:22.582Z,95014.85
2017-10-29T19:41:51.745Z,95006.38
2017-10-29T19:44:20.941Z,95015.35
2017-10-29T19:46:49.952Z,95016.61
2017-10-29T19:49:20.540Z,95026.68
2017-10-29T19:51:51.604Z,95029.09
2017-10-29T19:54:23.950Z,95024.08
2017-10-29T19:56:57.072Z,95027.42
2017-10-29T19:59:27.056Z,95021.05
2017-10-29T20:01:59.212Z,95035.25
2017-10-29T20:04:30.318Z,95031.04
2017-10-29T20:06:59.608Z,95027.64
2017-10-29T20:09:31.638Z,95040.20
2017-10-29T20:12:02.519Z,95044.14
2017-10-29T20:14:32.374Z,95048.43
2017-10-29T20:17:05.668Z,95058.09
2017-10-29T20:19:35.220Z,95053.73
2017-10-29T20:22:11.469Z,95058.27
2017-10-29T20:24:45.738Z,95060.99
2017-10-29T20:27:15.397Z,95059.70
2017-10-29T20:29:49.655Z,95058.23
2017-10-29T20:32:18.655Z,95058.96
2017-10-29T20:34:47.817Z,95055.55
2017-10-29T20:37:18.694Z,95054.20
2017-10-29T20:39:50.316Z,95056.50
2017-10-29T20:42:19.681Z,95058.19
2017-10-29T20:44:49.566Z,95056.69
2017-10-29T20:47:20.115Z,95061.27
2017-10-29T20:49:49.816Z,95057.59
2017-10-29T20:52:18.974Z,95059.02
2017-10-29T20:54:47.906Z,95055.98
2017-10-29T20:57:18.753Z,95064.78
2017-10-29T20:59:48.738Z,95065.99
2017-10-29T21:02:19.065Z,95066.30
2017-10-29T21:04:49.316Z,95071.39
2017-10-29T21:07:19.646Z,95075.84
2017-10-29T21:09:50.158Z,95079.65
2017-10-29T21:12:19.902Z,95081.19
2017-10-29T21:14:50.361Z,95084.30
2017-10-29T21:17:20.816Z,95086.24
2017-10-29T21:19:49.989Z,95102.52
2017-10-29T21:22:20.344Z,95089.98
2017-10-29T21:24:49.248Z,95094.23
2017-10-29T21:27:18.717Z,95105.19
2017-10-29T21:29:49.500Z,95109.69
2017-10-29T21:32:18.622Z,95105.39
2017-10-29T21:34:48.505Z,95115.27
2017-10-29T21:37:17.398Z,95103.53
2017-10-29T21:39:49.234Z,95104.67
2017-10-29T21:42:18.819Z,95100.89
2017-10-29T21:44:50.676Z,95098.79
2017-10-29T21:47:19.556Z,95113.59
2017-10-29T21:49:49.483Z,95101.98
2017-10-29T21:52:19.255Z,95114.89
2017-10-29T21:54:48.728Z,95107.62
2017-10-29T21:57:19.508Z,95110.73
2017-10-29T21:59:48.632Z,95110.41
2017-10-29T22:02:17.503Z,95117.22
2017-10-29T22:04:46.732Z,95117.39
2017-10-29T22:07:27.930Z,95122.52
2017-10-29T22:09:56.330Z,95119.83
2017-10-29T22:12:24.748Z,95126.83
2017-10-29T22:14:53.100Z,95126.33
2017-10-29T22:17:22.276Z,95135.36
2017-10-29T22:19:50.615Z,95120.67
2017-10-29T22:22:18.979Z,95119.92
2017-10-29T22:24:48.407Z,95123.61
2017-10-29T22:27:16.812Z,95122.73
2017-10-29T22:29:45.206Z,95130.05
2017-10-29T22:32:14.616Z,95128.13
2017-10-29T22:34:43.712Z,95132.88
2017-10-29T22:37:12.825Z,95134.02
2017-10-29T22:39:41.920Z,95128.95
2017-10-29T22:42:10.462Z,95117.88
2017-10-29T22:44:39.976Z,95123.42
2017-10-29T22:47:09.119Z,95132.55
2017-10-29T22:49:37.470Z,95126.96
2017-10-29T22:52:06.210Z,95127.02
2017-10-29T22:54:34.579Z,95124.70
2017-10-29T22:57:03.021Z,95121.61
2017-10-29T22:59:31.838Z,95125.80
2017-10-29T23:02:00.281Z,95128.83
2017-10-29T23:04:29.097Z,95129.91
2017-10-29T23:07:11.802Z,95140.58
2017-10-29T23:09:40.576Z,95139.51
2017-10-29T23:12:08.983Z,95152.17
2017-10-29T23:14:37.416Z,95143.28
2017-10-29T23:17:06.521Z,95154.56
2017-10-29T23:19:34.891Z,95149.59
2017-10-29T23:22:03.279Z,95168.66
2017-10-29T23:24:31.679Z,95149.25
2017-10-29T23:27:00.404Z,95163.83
2017-10-29T23:29:28.787Z,95156.68
2017-10-29T23:31:58.288Z,95155.39
2017-10-29T23:34:27.382Z,95157.33
2017-10-29T23:36:56.503Z,95164.07
2017-10-29T23:39:24.900Z,95162.08
2017-10-29T23:41:53.583Z,95161.09
2017-10-29T23:44:21.915Z,95161.95
2017-10-29T23:46:51.196Z,95173.30
2017-10-29T23:49:19.575Z,95167.40
2017-10-29T23:51:47.924Z,95171.45
2017-10-29T23:54:16.314Z,95172.67
2017-10-29T23:56:44.687Z,95175.28
